Time;durP1;ratioP1;P1;durP2;ratioP2;P2;SDS_P1;SDS_P2;PMS_P1;PMS_P2;Temp;Humidity;BMP_temperature;BMP_pressure;BME280_temperature;BME280_humidity;BME280_pressure;Samples;Min_cycle;Max_cycle;Signal;HPM_P1;HPM_P2
2024/04/14 00:00:38;;;;;;;9.02;4.70;;;;;;;;;;5425466;26;20007;-63
2024/04/14 00:03:03;;;;;;;9.35;4.90;;;;;;;;;;5430720;26;19995;-64
2024/04/14 00:05:29;;;;;;;10.38;4.95;;;;;;;;;;5444634;26;20010;-64
2024/04/14 00:07:54;;;;;;;8.57;4.80;;;;;;;;;;5447455;26;20007;-63
2024/04/14 00:10:20;;;;;;;8.95;4.88;;;;;;;;;;5451310;26;20011;-65
2024/04/14 00:12:45;;;;;;;11.77;5.90;;;;;;;;;;5449498;26;20067;-64
2024/04/14 00:15:11;;;;;;;9.45;5.47;;;;;;;;;;5450037;26;20220;-63
2024/04/14 00:17:36;;;;;;;9.27;4.78;;;;;;;;;;5446995;26;20006;-65
2024/04/14 00:20:03;;;;;;;8.30;4.80;;;;;;;;;;5424717;26;20006;-63
2024/04/14 00:22:29;;;;;;;11.00;4.60;;;;;;;;;;5411556;26;20332;-65
2024/04/14 00:24:55;;;;;;;7.75;4.32;;;;;;;;;;5446215;26;19995;-66
2024/04/14 00:27:21;;;;;;;8.98;4.53;;;;;;;;;;5445880;26;20439;-64
2024/04/14 00:29:46;;;;;;;9.02;4.53;;;;;;;;;;5445936;26;20006;-63
2024/04/14 00:32:12;;;;;;;8.38;4.75;;;;;;;;;;5426993;26;20012;-64
2024/04/14 00:34:37;;;;;;;9.68;4.70;;;;;;;;;;5444097;26;20007;-65
2024/04/14 00:37:03;;;;;;;8.25;4.57;;;;;;;;;;5428004;26;20514;-62
2024/04/14 00:39:28;;;;;;;7.72;4.30;;;;;;;;;;5443736;26;20408;-62
2024/04/14 00:41:54;;;;;;;8.15;4.90;;;;;;;;;;5445231;26;20067;-63
2024/04/14 00:44:19;;;;;;;9.85;4.65;;;;;;;;;;5442762;26;20447;-64
2024/04/14 00:46:45;;;;;;;7.68;3.97;;;;;;;;;;5437918;26;20376;-63
2024/04/14 00:49:10;;;;;;;6.70;3.78;;;;;;;;;;5443373;26;20072;-62
2024/04/14 00:51:36;;;;;;;9.40;4.28;;;;;;;;;;5442943;26;19999;-63
2024/04/14 00:54:02;;;;;;;6.65;3.72;;;;;;;;;;5438152;26;20451;-64
2024/04/14 00:56:27;;;;;;;7.78;3.60;;;;;;;;;;5438912;26;20003;-64
2024/04/14 00:58:53;;;;;;;6.70;3.40;;;;;;;;;;5431248;26;20355;-63
2024/04/14 01:01:19;;;;;;;7.43;3.80;;;;;;;;;;5433645;26;20080;-63
2024/04/14 01:03:45;;;;;;;7.95;3.28;;;;;;;;;;5440845;26;20010;-63
2024/04/14 01:06:10;;;;;;;5.68;2.42;;;;;;;;;;5441527;26;20296;-63
2024/04/14 01:08:36;;;;;;;5.90;2.92;;;;;;;;;;5444469;26;20451;-64
2024/04/14 01:11:01;;;;;;;5.55;2.40;;;;;;;;;;5433244;26;20000;-63
2024/04/14 01:13:27;;;;;;;4.95;1.70;;;;;;;;;;5424182;26;20007;-64
2024/04/14 01:15:52;;;;;;;5.15;1.70;;;;;;;;;;5427183;26;19999;-62
2024/04/14 01:18:18;;;;;;;3.95;1.40;;;;;;;;;;5445985;26;20010;-64
2024/04/14 01:20:43;;;;;;;4.47;1.60;;;;;;;;;;5449257;26;20044;-62
2024/04/14 01:23:09;;;;;;;4.47;1.40;;;;;;;;;;5450785;26;20009;-64
2024/04/14 01:25:34;;;;;;;4.50;1.45;;;;;;;;;;5444584;26;20075;-62
2024/04/14 01:28:00;;;;;;;4.00;1.48;;;;;;;;;;5447802;26;19995;-63
2024/04/14 01:30:27;;;;;;;4.25;1.30;;;;;;;;;;5447862;26;20011;-63
2024/04/14 01:32:53;;;;;;;4.07;1.60;;;;;;;;;;5444082;26;20003;-64
2024/04/14 01:35:18;;;;;;;3.08;1.23;;;;;;;;;;5448223;26;20070;-65
2024/04/14 01:37:44;;;;;;;3.70;1.40;;;;;;;;;;5416107;26;19999;-67
2024/04/14 01:40:11;;;;;;;4.05;1.30;;;;;;;;;;5416317;26;20076;-63
2024/04/14 01:42:36;;;;;;;4.05;1.15;;;;;;;;;;5414159;26;19995;-64
2024/04/14 01:45:02;;;;;;;4.40;1.30;;;;;;;;;;5447904;26;19998;-63
2024/04/14 01:47:28;;;;;;;5.72;1.42;;;;;;;;;;5445083;26;19995;-64
2024/04/14 01:49:53;;;;;;;3.35;1.20;;;;;;;;;;5443550;26;20011;-62
2024/04/14 01:52:19;;;;;;;3.67;1.20;;;;;;;;;;5447736;26;20125;-64
2024/04/14 01:54:44;;;;;;;3.08;1.10;;;;;;;;;;5442506;26;20071;-64
2024/04/14 01:57:10;;;;;;;4.78;1.50;;;;;;;;;;5429938;26;19995;-63
2024/04/14 01:59:37;;;;;;;4.10;1.27;;;;;;;;;;5445154;26;20006;-61
2024/04/14 02:02:02;;;;;;;4.40;1.30;;;;;;;;;;5430611;26;20015;-63
2024/04/14 02:04:28;;;;;;;4.47;1.20;;;;;;;;;;5436523;26;19990;-64
2024/04/14 02:06:53;;;;;;;3.80;1.40;;;;;;;;;;5444094;26;20002;-65
2024/04/14 02:09:19;;;;;;;5.30;1.60;;;;;;;;;;5431869;26;20071;-65
2024/04/14 02:11:44;;;;;;;3.42;1.20;;;;;;;;;;5411272;26;19988;-64
2024/04/14 02:14:10;;;;;;;4.65;1.40;;;;;;;;;;5421003;26;20069;-63
2024/04/14 02:16:35;;;;;;;4.15;1.50;;;;;;;;;;5444968;26;20009;-64
2024/04/14 02:19:01;;;;;;;4.25;1.40;;;;;;;;;;5444985;26;20003;-64
2024/04/14 02:21:26;;;;;;;3.13;1.23;;;;;;;;;;5437813;26;20071;-62
2024/04/14 02:23:53;;;;;;;3.50;1.20;;;;;;;;;;5441800;26;20003;-64
2024/04/14 02:26:19;;;;;;;;;;;;;;;;;;5445845;26;20010;-62
2024/04/14 02:28:44;;;;;;;3.67;1.15;;;;;;;;;;5442547;26;19933;-61
2024/04/14 02:31:10;;;;;;;4.00;1.30;;;;;;;;;;5426158;26;20021;-61
2024/04/14 02:33:36;;;;;;;3.38;1.20;;;;;;;;;;5445961;26;19990;-65
2024/04/14 02:36:01;;;;;;;4.95;1.40;;;;;;;;;;5410619;26;20072;-63
2024/04/14 02:38:27;;;;;;;4.10;1.30;;;;;;;;;;5410235;26;19999;-64
2024/04/14 02:40:59;;;;;;;4.68;1.30;;;;;;;;;;5413813;26;20003;-64
2024/04/14 02:43:24;;;;;;;4.15;1.20;;;;;;;;;;5433875;26;20010;-63
2024/04/14 02:45:50;;;;;;;3.15;1.23;;;;;;;;;;5439227;26;19999;-64
2024/04/14 02:48:16;;;;;;;4.43;1.40;;;;;;;;;;5446403;26;19999;-62
2024/04/14 02:50:42;;;;;;;3.55;1.70;;;;;;;;;;5444757;26;20387;-64
2024/04/14 02:53:10;;;;;;;3.22;1.30;;;;;;;;;;5446288;26;20462;-62
2024/04/14 02:55:35;;;;;;;4.65;1.38;;;;;;;;;;5443629;26;20006;-65
2024/04/14 02:58:01;;;;;;;4.95;1.50;;;;;;;;;;5427712;26;20017;-63
2024/04/14 03:00:30;;;;;;;3.65;1.30;;;;;;;;;;5446149;26;20003;-63
2024/04/14 03:02:56;;;;;;;3.72;1.30;;;;;;;;;;5417398;26;20018;-63
2024/04/14 03:05:22;;;;;;;3.10;1.20;;;;;;;;;;5417262;26;20011;-64
2024/04/14 03:07:48;;;;;;;4.13;1.30;;;;;;;;;;5439427;26;20013;-62
2024/04/14 03:10:13;;;;;;;2.65;1.00;;;;;;;;;;5446052;26;20003;-64
2024/04/14 03:12:39;;;;;;;3.20;1.30;;;;;;;;;;5442935;26;20078;-63
2024/04/14 03:15:05;;;;;;;5.63;1.33;;;;;;;;;;5442330;26;20311;-63
2024/04/14 03:17:31;;;;;;;5.32;1.40;;;;;;;;;;5445546;26;20001;-63
2024/04/14 03:19:56;;;;;;;4.45;1.40;;;;;;;;;;5445243;26;20091;-66
2024/04/14 03:22:22;;;;;;;3.47;1.35;;;;;;;;;;5446110;26;20395;-63
2024/04/14 03:24:48;;;;;;;3.83;1.30;;;;;;;;;;5425284;26;20123;-64
2024/04/14 03:27:13;;;;;;;3.78;1.23;;;;;;;;;;5444950;26;20334;-62
2024/04/14 03:29:39;;;;;;;3.60;1.40;;;;;;;;;;5425849;26;20045;-61
2024/04/14 03:32:05;;;;;;;3.30;1.10;;;;;;;;;;5411265;26;19995;-62
2024/04/14 03:34:30;;;;;;;3.17;1.10;;;;;;;;;;5412242;26;20042;-64
2024/04/14 03:36:56;;;;;;;3.80;1.25;;;;;;;;;;5444060;26;20013;-62
2024/04/14 03:39:22;;;;;;;5.25;1.40;;;;;;;;;;5446917;26;20515;-63
2024/04/14 03:41:47;;;;;;;4.15;1.50;;;;;;;;;;5435910;26;20053;-63
2024/04/14 03:44:13;;;;;;;3.97;1.33;;;;;;;;;;5418044;26;20481;-67
2024/04/14 03:46:38;;;;;;;3.85;1.20;;;;;;;;;;5446370;26;20800;-63
2024/04/14 03:49:04;;;;;;;3.70;1.40;;;;;;;;;;5442052;26;20507;-64
2024/04/14 03:51:29;;;;;;;5.07;1.20;;;;;;;;;;5424154;26;20399;-64
2024/04/14 03:53:55;;;;;;;3.42;1.35;;;;;;;;;;5439838;26;20400;-64
2024/04/14 03:56:20;;;;;;;4.78;1.50;;;;;;;;;;5442909;26;20393;-63
2024/04/14 03:58:48;;;;;;;4.28;1.35;;;;;;;;;;5444180;26;20384;-64
2024/04/14 04:01:14;;;;;;;4.15;1.30;;;;;;;;;;5423730;26;20556;-63
2024/04/14 04:03:39;;;;;;;3.70;1.40;;;;;;;;;;5440119;26;19995;-63
2024/04/14 04:06:05;;;;;;;5.15;1.40;;;;;;;;;;5435968;26;20408;-63
2024/04/14 04:08:30;;;;;;;5.35;1.40;;;;;;;;;;5444959;26;20644;-64
2024/04/14 04:11:03;;;;;;;4.90;1.40;;;;;;;;;;5441780;26;20738;-62
2024/04/14 04:13:29;;;;;;;3.78;1.50;;;;;;;;;;5445200;26;20007;-63
2024/04/14 04:15:58;;;;;;;3.95;1.30;;;;;;;;;;5442998;26;20001;-64
2024/04/14 04:18:27;;;;;;;3.95;1.35;;;;;;;;;;5437577;26;19999;-63
2024/04/14 04:20:57;;;;;;;5.45;1.35;;;;;;;;;;5444190;26;20009;-64
2024/04/14 04:23:24;;;;;;;3.97;1.38;;;;;;;;;;5444574;26;20006;-65
2024/04/14 04:25:50;;;;;;;4.53;1.50;;;;;;;;;;5438347;26;20017;-65
2024/04/14 04:28:16;;;;;;;3.10;1.23;;;;;;;;;;5444764;26;20013;-65
2024/04/14 04:30:41;;;;;;;4.38;1.50;;;;;;;;;;5444819;26;20011;-64
2024/04/14 04:33:07;;;;;;;5.25;1.42;;;;;;;;;;5443948;26;20014;-64
2024/04/14 04:35:32;;;;;;;3.50;1.35;;;;;;;;;;5434044;26;19990;-64
2024/04/14 04:37:58;;;;;;;3.72;1.10;;;;;;;;;;5426092;26;20034;-63
2024/04/14 04:40:24;;;;;;;3.83;1.45;;;;;;;;;;5417008;26;20011;-63
2024/04/14 04:42:50;;;;;;;3.88;1.40;;;;;;;;;;5444025;26;20570;-66
2024/04/14 04:45:15;;;;;;;4.03;1.50;;;;;;;;;;5431094;26;20068;-64
2024/04/14 04:47:41;;;;;;;3.97;1.55;;;;;;;;;;5444387;26;20007;-64
2024/04/14 04:50:06;;;;;;;4.55;1.40;;;;;;;;;;5442548;26;20014;-63
2024/04/14 04:52:32;;;;;;;3.95;1.48;;;;;;;;;;5444158;26;19994;-64
2024/04/14 04:54:57;;;;;;;4.28;1.48;;;;;;;;;;5432492;26;20447;-64
2024/04/14 04:57:23;;;;;;;4.47;1.60;;;;;;;;;;5442381;26;20182;-63
2024/04/14 04:59:48;;;;;;;4.63;1.50;;;;;;;;;;5443261;26;19991;-64
2024/04/14 05:02:14;;;;;;;4.18;1.33;;;;;;;;;;5422550;26;20808;-63
2024/04/14 05:04:39;;;;;;;4.65;1.48;;;;;;;;;;5430273;26;20011;-65
2024/04/14 05:07:06;;;;;;;5.45;1.50;;;;;;;;;;5441003;26;20052;-64
2024/04/14 05:09:31;;;;;;;4.28;1.60;;;;;;;;;;5422743;26;20449;-65
2024/04/14 05:11:57;;;;;;;4.18;1.40;;;;;;;;;;5424799;26;19999;-64
2024/04/14 05:14:23;;;;;;;6.25;1.60;;;;;;;;;;5428904;26;20336;-64
2024/04/14 05:16:48;;;;;;;5.13;1.60;;;;;;;;;;5432054;26;20003;-64
2024/04/14 05:19:14;;;;;;;4.68;1.33;;;;;;;;;;5416649;26;20009;-63
2024/04/14 05:21:39;;;;;;;5.40;1.30;;;;;;;;;;5419536;26;19999;-63
2024/04/14 05:24:07;;;;;;;4.50;1.27;;;;;;;;;;5428179;26;20072;-64
2024/04/14 05:26:32;;;;;;;5.35;1.42;;;;;;;;;;5420777;26;19996;-64
2024/04/14 05:28:58;;;;;;;4.18;1.52;;;;;;;;;;5426414;26;20498;-63
2024/04/14 05:31:24;;;;;;;5.50;1.50;;;;;;;;;;5425605;26;20459;-62
2024/04/14 05:33:51;;;;;;;5.13;1.75;;;;;;;;;;5433174;26;20511;-64
2024/04/14 05:36:16;;;;;;;4.38;1.60;;;;;;;;;;5427776;26;20005;-64
2024/04/14 05:38:42;;;;;;;4.25;1.40;;;;;;;;;;5440102;26;20022;-62
2024/04/14 05:41:08;;;;;;;4.13;1.50;;;;;;;;;;5446397;26;20071;-63
2024/04/14 05:43:33;;;;;;;3.85;1.60;;;;;;;;;;5446576;26;20071;-67
2024/04/14 05:45:59;;;;;;;4.45;1.55;;;;;;;;;;5442299;26;19999;-64
2024/04/14 05:48:24;;;;;;;4.30;1.40;;;;;;;;;;5430199;26;20003;-62
2024/04/14 05:50:50;;;;;;;5.82;1.75;;;;;;;;;;5442640;26;20079;-65
2024/04/14 05:53:16;;;;;;;4.82;1.67;;;;;;;;;;5441849;26;19995;-65
2024/04/14 05:55:41;;;;;;;3.67;1.50;;;;;;;;;;5443794;26;20003;-64
2024/04/14 05:58:07;;;;;;;4.97;1.67;;;;;;;;;;5420781;26;20066;-66
2024/04/14 06:00:35;;;;;;;3.97;1.60;;;;;;;;;;5421940;26;20009;-63
2024/04/14 06:03:00;;;;;;;4.70;1.50;;;;;;;;;;5421128;26;19995;-64
2024/04/14 06:05:26;;;;;;;4.07;1.40;;;;;;;;;;5430846;26;20072;-64
2024/04/14 06:07:51;;;;;;;4.93;1.90;;;;;;;;;;5440197;26;20002;-64
2024/04/14 06:10:17;;;;;;;4.78;1.67;;;;;;;;;;5418959;26;20071;-64
2024/04/14 06:12:43;;;;;;;4.38;1.67;;;;;;;;;;5422160;26;19996;-64
2024/04/14 06:15:08;;;;;;;7.25;1.40;;;;;;;;;;5443827;26;20010;-65
2024/04/14 06:17:34;;;;;;;5.45;1.75;;;;;;;;;;5441843;26;20002;-65
2024/04/14 06:19:59;;;;;;;3.92;1.70;;;;;;;;;;5435152;26;20073;-64
2024/04/14 06:22:25;;;;;;;4.65;1.70;;;;;;;;;;5421979;26;20006;-62
2024/04/14 06:24:50;;;;;;;5.85;1.80;;;;;;;;;;5430451;26;19999;-63
2024/04/14 06:27:16;;;;;;;6.30;1.70;;;;;;;;;;5444243;26;20007;-66
2024/04/14 06:29:41;;;;;;;5.50;1.80;;;;;;;;;;5440801;26;20071;-62
2024/04/14 06:32:07;;;;;;;4.93;1.60;;;;;;;;;;5435978;26;19995;-64
2024/04/14 06:34:32;;;;;;;5.55;1.80;;;;;;;;;;5422989;26;20012;-64
2024/04/14 06:36:58;;;;;;;4.10;1.67;;;;;;;;;;5426903;26;20072;-64
2024/04/14 06:39:24;;;;;;;4.63;1.98;;;;;;;;;;5426338;26;20010;-63
2024/04/14 06:41:50;;;;;;;4.05;1.60;;;;;;;;;;5446415;26;20010;-63
2024/04/14 06:44:15;;;;;;;4.25;1.73;;;;;;;;;;5432982;26;20011;-64
2024/04/14 06:46:41;;;;;;;5.43;1.80;;;;;;;;;;5419082;26;20076;-62
2024/04/14 06:49:06;;;;;;;3.65;1.75;;;;;;;;;;5442092;26;19991;-63
2024/04/14 06:51:32;;;;;;;5.85;1.90;;;;;;;;;;5443054;26;19991;-64
2024/04/14 06:53:58;;;;;;;4.80;1.83;;;;;;;;;;5432384;26;20409;-62
2024/04/14 06:56:23;;;;;;;4.18;1.73;;;;;;;;;;5437875;26;20404;-63
2024/04/14 06:58:49;;;;;;;5.07;1.73;;;;;;;;;;5430402;26;20009;-63
2024/04/14 07:01:15;;;;;;;5.03;1.95;;;;;;;;;;5423836;26;20003;-65
2024/04/14 07:03:40;;;;;;;6.00;2.03;;;;;;;;;;5433990;26;20435;-63
2024/04/14 07:06:06;;;;;;;5.10;2.20;;;;;;;;;;5449105;26;20006;-64
2024/04/14 07:08:31;;;;;;;6.93;1.90;;;;;;;;;;5446747;26;20074;-64
2024/04/14 07:10:57;;;;;;;5.97;2.13;;;;;;;;;;5450525;26;20005;-64
2024/04/14 07:13:23;;;;;;;4.00;1.90;;;;;;;;;;5443622;26;20006;-65
2024/04/14 07:15:48;;;;;;;5.57;1.80;;;;;;;;;;5449360;26;20066;-62
2024/04/14 07:18:16;;;;;;;6.28;2.10;;;;;;;;;;5436453;26;20017;-63
2024/04/14 07:20:42;;;;;;;9.55;2.45;;;;;;;;;;5431167;26;20014;-64
2024/04/14 07:23:07;;;;;;;8.25;2.30;;;;;;;;;;5416235;26;20407;-65
2024/04/14 07:25:33;;;;;;;7.15;2.10;;;;;;;;;;5415935;26;20045;-65
2024/04/14 07:27:59;;;;;;;6.38;2.20;;;;;;;;;;5422762;26;20100;-63
2024/04/14 07:30:24;;;;;;;4.63;1.77;;;;;;;;;;5414975;26;20011;-63
2024/04/14 07:32:50;;;;;;;5.25;2.38;;;;;;;;;;5435021;26;20006;-68
2024/04/14 07:35:15;;;;;;;5.40;2.55;;;;;;;;;;5448990;26;20011;-65
2024/04/14 07:37:41;;;;;;;7.18;2.60;;;;;;;;;;5434854;26;20067;-63
2024/04/14 07:40:06;;;;;;;6.10;2.17;;;;;;;;;;5429609;26;20326;-65
2024/04/14 07:42:32;;;;;;;5.07;1.95;;;;;;;;;;5448507;26;20327;-63
2024/04/14 07:44:57;;;;;;;5.78;2.22;;;;;;;;;;5447181;26;20012;-64
2024/04/14 07:47:23;;;;;;;4.22;1.92;;;;;;;;;;5445985;26;20013;-62
2024/04/14 07:49:48;;;;;;;5.97;2.30;;;;;;;;;;5447382;26;20011;-62
2024/04/14 07:52:14;;;;;;;8.38;2.60;;;;;;;;;;5449443;26;20458;-64
2024/04/14 07:54:39;;;;;;;5.10;2.20;;;;;;;;;;5433912;26;20397;-65
2024/04/14 07:57:05;;;;;;;6.50;2.30;;;;;;;;;;5429659;26;20452;-62
2024/04/14 07:59:31;;;;;;;5.57;2.70;;;;;;;;;;5450258;26;20459;-62
2024/04/14 08:01:57;;;;;;;6.47;2.45;;;;;;;;;;5445088;26;20006;-62
2024/04/14 08:04:22;;;;;;;6.47;2.88;;;;;;;;;;5450588;26;20110;-64
2024/04/14 08:06:49;;;;;;;5.25;2.85;;;;;;;;;;5447939;26;19995;-63
2024/04/14 08:09:14;;;;;;;8.13;2.80;;;;;;;;;;5446038;26;20014;-66
2024/04/14 08:11:40;;;;;;;6.88;2.63;;;;;;;;;;5426667;26;20458;-67
2024/04/14 08:14:08;;;;;;;6.53;2.85;;;;;;;;;;5440161;26;20134;-65
2024/04/14 08:16:34;;;;;;;9.52;3.00;;;;;;;;;;5449405;26;20510;-64
2024/04/14 08:18:59;;;;;;;6.65;2.53;;;;;;;;;;5454297;26;20075;-62
2024/04/14 08:21:25;;;;;;;8.00;3.00;;;;;;;;;;5455066;26;19995;-63
2024/04/14 08:23:50;;;;;;;6.93;3.35;;;;;;;;;;5446409;26;20007;-65
2024/04/14 08:26:16;;;;;;;7.97;2.70;;;;;;;;;;5448298;26;20006;-63
2024/04/14 08:28:42;;;;;;;7.40;3.10;;;;;;;;;;5443984;26;20009;-62
2024/04/14 08:31:07;;;;;;;7.80;3.30;;;;;;;;;;5418939;26;19999;-63
2024/04/14 08:33:33;;;;;;;6.45;2.72;;;;;;;;;;5440870;26;20013;-63
2024/04/14 08:35:58;;;;;;;7.30;3.28;;;;;;;;;;5452690;26;19994;-63
2024/04/14 08:38:24;;;;;;;5.38;2.97;;;;;;;;;;5453724;26;19995;-66
2024/04/14 08:40:52;;;;;;;5.40;3.13;;;;;;;;;;5453766;26;20010;-64
2024/04/14 08:43:19;;;;;;;6.38;3.20;;;;;;;;;;5449765;26;20007;-64
2024/04/14 08:45:45;;;;;;;7.35;3.33;;;;;;;;;;5451756;26;20009;-64
2024/04/14 08:48:13;;;;;;;8.30;3.20;;;;;;;;;;5458514;26;20003;-64
2024/04/14 08:50:39;;;;;;;7.22;3.10;;;;;;;;;;5450110;26;20026;-63
2024/04/14 08:53:06;;;;;;;7.30;3.47;;;;;;;;;;5453241;26;20435;-64
2024/04/14 08:55:32;;;;;;;7.60;3.20;;;;;;;;;;5447907;26;20017;-64
2024/04/14 08:57:58;;;;;;;6.72;3.38;;;;;;;;;;5453973;26;20003;-64
2024/04/14 09:00:23;;;;;;;6.80;3.40;;;;;;;;;;5449033;26;20051;-65
2024/04/14 09:02:49;;;;;;;9.27;3.20;;;;;;;;;;5450875;26;20014;-64
2024/04/14 09:05:15;;;;;;;6.45;3.15;;;;;;;;;;5432715;26;20063;-65
2024/04/14 09:07:40;;;;;;;;;;;;;;;;;;5451357;26;20332;-65
2024/04/14 09:10:06;;;;;;;7.70;3.13;;;;;;;;;;5444698;26;19931;-63
2024/04/14 09:12:32;;;;;;;8.05;3.33;;;;;;;;;;5452257;26;20340;-64
2024/04/14 09:14:57;;;;;;;7.47;3.53;;;;;;;;;;5450516;26;20017;-65
2024/04/14 09:17:23;;;;;;;6.75;3.28;;;;;;;;;;5452289;26;19994;-65
2024/04/14 09:19:49;;;;;;;8.23;3.25;;;;;;;;;;5449386;26;20082;-62
2024/04/14 09:22:14;;;;;;;7.72;3.30;;;;;;;;;;5452348;26;20030;-67
2024/04/14 09:24:40;;;;;;;7.50;3.08;;;;;;;;;;5445967;26;20003;-63
2024/04/14 09:27:05;;;;;;;7.88;3.22;;;;;;;;;;5449139;26;20007;-63
2024/04/14 09:29:31;;;;;;;8.40;3.25;;;;;;;;;;5442849;26;20087;-64
2024/04/14 09:31:57;;;;;;;7.03;3.15;;;;;;;;;;5447428;26;20332;-63
2024/04/14 09:34:23;;;;;;;7.65;3.35;;;;;;;;;;5429726;26;20013;-64
2024/04/14 09:36:51;;;;;;;7.78;2.80;;;;;;;;;;5449016;26;20007;-63
2024/04/14 09:39:19;;;;;;;8.05;2.80;;;;;;;;;;5437068;26;20474;-65
2024/04/14 09:41:45;;;;;;;9.60;3.10;;;;;;;;;;5450578;26;19995;-64
2024/04/14 09:44:11;;;;;;;6.57;3.05;;;;;;;;;;5434516;26;20443;-66
2024/04/14 09:46:37;;;;;;;8.60;3.15;;;;;;;;;;5432667;26;20013;-64
2024/04/14 09:49:04;;;;;;;7.18;3.00;;;;;;;;;;5437845;26;20002;-65
2024/04/14 09:51:29;;;;;;;7.88;3.50;;;;;;;;;;5452209;26;20007;-64
2024/04/14 09:53:56;;;;;;;6.88;3.00;;;;;;;;;;5448973;26;20396;-65
2024/04/14 09:56:23;;;;;;;7.63;3.58;;;;;;;;;;5443993;26;20133;-64
2024/04/14 09:58:49;;;;;;;7.20;3.20;;;;;;;;;;5448278;26;20027;-64
2024/04/14 10:01:19;;;;;;;6.53;2.80;;;;;;;;;;5464086;26;19990;-66
2024/04/14 10:03:46;;;;;;;7.32;2.90;;;;;;;;;;5443327;26;20007;-63
2024/04/14 10:06:12;;;;;;;7.20;3.28;;;;;;;;;;5441863;26;20006;-63
2024/04/14 10:08:37;;;;;;;6.97;3.47;;;;;;;;;;5451990;26;20013;-64
2024/04/14 10:11:04;;;;;;;9.93;3.15;;;;;;;;;;5451093;26;20058;-63
2024/04/14 10:13:30;;;;;;;5.68;2.80;;;;;;;;;;5446631;26;20003;-65
2024/04/14 10:15:59;;;;;;;6.13;2.85;;;;;;;;;;5441197;26;20003;-62
2024/04/14 10:18:29;;;;;;;7.45;2.95;;;;;;;;;;5433647;26;20011;-62
2024/04/14 10:21:00;;;;;;;6.18;2.40;;;;;;;;;;5415415;26;20370;-64
2024/04/14 10:23:26;;;;;;;7.05;2.83;;;;;;;;;;5415161;26;19999;-66
2024/04/14 10:25:52;;;;;;;6.57;3.03;;;;;;;;;;5435750;26;20068;-65
2024/04/14 10:28:17;;;;;;;;;;;;;;;;;;5439255;26;20405;-64
2024/04/14 10:30:43;;;;;;;7.00;2.90;;;;;;;;;;5447347;26;19924;-64
2024/04/14 10:33:10;;;;;;;7.53;2.72;;;;;;;;;;5440772;26;20007;-66
2024/04/14 10:35:35;;;;;;;7.20;2.53;;;;;;;;;;5441679;26;20010;-63
2024/04/14 10:38:01;;;;;;;7.32;2.80;;;;;;;;;;5451439;26;20462;-63
2024/04/14 10:40:27;;;;;;;8.23;2.78;;;;;;;;;;5443655;26;21075;-62
2024/04/14 10:42:52;;;;;;;5.65;2.72;;;;;;;;;;5439756;26;21226;-63
2024/04/14 10:45:24;;;;;;;6.82;2.25;;;;;;;;;;5428817;26;20345;-63
2024/04/14 10:47:49;;;;;;;;;;;;;;;;;;5432726;26;20462;-63
2024/04/14 10:50:16;;;;;;;6.23;2.30;;;;;;;;;;5441297;26;19924;-64
2024/04/14 10:52:41;;;;;;;5.35;2.40;;;;;;;;;;5416410;26;20377;-63
2024/04/14 10:55:07;;;;;;;7.07;2.90;;;;;;;;;;5422586;26;20003;-64
2024/04/14 10:57:33;;;;;;;7.80;2.90;;;;;;;;;;5440025;26;20003;-63
2024/04/14 10:59:58;;;;;;;5.95;3.03;;;;;;;;;;5451615;26;19994;-63
2024/04/14 11:02:25;;;;;;;7.97;2.60;;;;;;;;;;5416033;26;20015;-62
2024/04/14 11:04:50;;;;;;;8.45;2.95;;;;;;;;;;5421534;26;20010;-64
2024/04/14 11:07:16;;;;;;;5.13;2.53;;;;;;;;;;5422493;26;20013;-64
2024/04/14 11:09:41;;;;;;;8.18;2.83;;;;;;;;;;5433993;26;20013;-63
2024/04/14 11:12:07;;;;;;;5.95;2.70;;;;;;;;;;5422335;26;19992;-63
2024/04/14 11:14:33;;;;;;;6.53;2.65;;;;;;;;;;5439641;26;19999;-64
2024/04/14 11:16:58;;;;;;;6.00;2.78;;;;;;;;;;5441448;26;20327;-63
2024/04/14 11:19:25;;;;;;;6.50;2.67;;;;;;;;;;5438362;26;20003;-65
2024/04/14 11:21:50;;;;;;;5.07;2.25;;;;;;;;;;5436016;26;20010;-65
2024/04/14 11:24:16;;;;;;;7.63;2.85;;;;;;;;;;5422228;26;20075;-64
2024/04/14 11:26:41;;;;;;;4.25;2.00;;;;;;;;;;5427394;26;20018;-63
2024/04/14 11:29:07;;;;;;;4.93;2.05;;;;;;;;;;5446377;26;20003;-63
2024/04/14 11:31:36;;;;;;;5.32;1.90;;;;;;;;;;5423159;26;20003;-63
2024/04/14 11:34:02;;;;;;;6.82;2.40;;;;;;;;;;5442045;26;20007;-63
2024/04/14 11:36:34;;;;;;;9.50;1.88;;;;;;;;;;5421767;26;19999;-62
2024/04/14 11:39:03;;;;;;;5.53;1.60;;;;;;;;;;5427471;26;19991;-65
2024/04/14 11:41:29;;;;;;;4.32;1.65;;;;;;;;;;5448567;26;20010;-63
2024/04/14 11:43:54;;;;;;;4.15;1.40;;;;;;;;;;5426521;26;20008;-66
2024/04/14 11:46:20;;;;;;;5.25;1.40;;;;;;;;;;5451531;26;20003;-65
2024/04/14 11:48:45;;;;;;;5.25;1.50;;;;;;;;;;5428391;26;20007;-65
2024/04/14 11:51:12;;;;;;;7.53;1.80;;;;;;;;;;5435417;26;20076;-64
2024/04/14 11:53:37;;;;;;;6.32;1.33;;;;;;;;;;5442160;26;19999;-62
2024/04/14 11:56:03;;;;;;;5.15;1.48;;;;;;;;;;5439911;26;20006;-64
2024/04/14 11:58:28;;;;;;;4.35;1.45;;;;;;;;;;5429567;26;20023;-65
2024/04/14 12:00:54;;;;;;;6.75;1.50;;;;;;;;;;5442824;26;20007;-64
2024/04/14 12:03:19;;;;;;;5.13;2.10;;;;;;;;;;5445283;26;20009;-65
2024/04/14 12:05:45;;;;;;;5.47;1.50;;;;;;;;;;5441433;26;20353;-64
2024/04/14 12:08:10;;;;;;;5.63;1.85;;;;;;;;;;5436564;26;20335;-64
2024/04/14 12:10:36;;;;;;;4.82;1.27;;;;;;;;;;5432684;26;20007;-63
2024/04/14 12:13:02;;;;;;;6.05;1.58;;;;;;;;;;5420426;26;20007;-63
2024/04/14 12:15:27;;;;;;;6.88;1.58;;;;;;;;;;5427415;26;20087;-67
2024/04/14 12:17:53;;;;;;;7.10;1.40;;;;;;;;;;5420769;26;20053;-66
2024/04/14 12:20:18;;;;;;;3.80;1.13;;;;;;;;;;5414201;26;19999;-65
2024/04/14 12:22:44;;;;;;;5.05;1.42;;;;;;;;;;5408713;26;20003;-64
2024/04/14 12:25:09;;;;;;;6.05;1.40;;;;;;;;;;5439753;26;20062;-64
2024/04/14 12:27:35;;;;;;;4.97;1.30;;;;;;;;;;5423748;26;19995;-66
2024/04/14 12:30:01;;;;;;;5.65;1.30;;;;;;;;;;5428316;26;20006;-63
2024/04/14 12:32:27;;;;;;;6.07;1.60;;;;;;;;;;5441647;26;20002;-65
2024/04/14 12:34:52;;;;;;;5.68;1.40;;;;;;;;;;5443696;26;19995;-66
2024/04/14 12:37:18;;;;;;;7.95;1.60;;;;;;;;;;5432031;26;20002;-63
2024/04/14 12:39:43;;;;;;;5.57;1.38;;;;;;;;;;5444235;26;20007;-66
2024/04/14 12:42:09;;;;;;;6.38;1.35;;;;;;;;;;5442941;26;20070;-63
2024/04/14 12:44:34;;;;;;;7.78;1.67;;;;;;;;;;5438847;26;19999;-65
2024/04/14 12:47:00;;;;;;;6.38;1.35;;;;;;;;;;5420304;26;20007;-64
2024/04/14 12:49:26;;;;;;;5.22;1.40;;;;;;;;;;5443989;26;20005;-66
2024/04/14 12:51:55;;;;;;;5.45;1.70;;;;;;;;;;5428991;26;19999;-66
2024/04/14 12:54:21;;;;;;;7.20;1.83;;;;;;;;;;5442913;26;20003;-65
2024/04/14 12:56:47;;;;;;;4.97;1.60;;;;;;;;;;5409116;26;19995;-64
2024/04/14 12:59:12;;;;;;;6.30;1.52;;;;;;;;;;5418715;26;20014;-64
2024/04/14 13:01:38;;;;;;;4.18;1.40;;;;;;;;;;5446754;26;20002;-64
2024/04/14 13:04:03;;;;;;;4.63;1.33;;;;;;;;;;5448313;26;20010;-64
2024/04/14 13:06:29;;;;;;;6.75;1.70;;;;;;;;;;5414254;26;20022;-65
2024/04/14 13:08:54;;;;;;;4.30;1.58;;;;;;;;;;5412051;26;19999;-65
2024/04/14 13:11:20;;;;;;;7.25;1.58;;;;;;;;;;5410753;26;20018;-66
2024/04/14 13:13:46;;;;;;;6.05;1.70;;;;;;;;;;5431334;26;20057;-64
2024/04/14 13:16:11;;;;;;;6.20;1.40;;;;;;;;;;5426154;26;20010;-65
2024/04/14 13:18:37;;;;;;;5.72;1.40;;;;;;;;;;5454540;26;20545;-64
2024/04/14 13:21:03;;;;;;;5.22;1.52;;;;;;;;;;5426757;26;20004;-65
2024/04/14 13:23:29;;;;;;;4.93;1.23;;;;;;;;;;5411510;26;20006;-66
2024/04/14 13:25:55;;;;;;;4.95;1.30;;;;;;;;;;5414161;26;19992;-65
2024/04/14 13:28:21;;;;;;;6.35;1.50;;;;;;;;;;5442925;26;20003;-67
2024/04/14 13:30:46;;;;;;;6.63;1.52;;;;;;;;;;5443032;26;20530;-65
2024/04/14 13:33:12;;;;;;;4.03;1.15;;;;;;;;;;5433229;26;19998;-65
2024/04/14 13:35:38;;;;;;;4.57;1.30;;;;;;;;;;5444055;26;20074;-64
2024/04/14 13:38:04;;;;;;;5.45;1.40;;;;;;;;;;5444294;26;19999;-64
2024/04/14 13:40:29;;;;;;;7.57;1.50;;;;;;;;;;5440607;26;20072;-63
2024/04/14 13:42:55;;;;;;;6.65;1.40;;;;;;;;;;5435320;26;20073;-65
2024/04/14 13:45:20;;;;;;;5.10;1.60;;;;;;;;;;5439215;26;19999;-64
2024/04/14 13:47:46;;;;;;;7.25;1.60;;;;;;;;;;5420532;26;20007;-63
2024/04/14 13:50:11;;;;;;;6.38;1.35;;;;;;;;;;5422379;26;20013;-63
2024/04/14 13:52:37;;;;;;;6.30;1.45;;;;;;;;;;5413421;26;20011;-67
2024/04/14 13:55:03;;;;;;;4.95;1.50;;;;;;;;;;5418455;26;20048;-68
2024/04/14 13:57:28;;;;;;;4.63;1.50;;;;;;;;;;5442816;26;20002;-64
2024/04/14 13:59:54;;;;;;;5.40;1.52;;;;;;;;;;5422105;26;20076;-63
2024/04/14 14:02:20;;;;;;;5.60;1.38;;;;;;;;;;5440542;26;19995;-63
2024/04/14 14:04:46;;;;;;;5.57;1.42;;;;;;;;;;5421603;26;20031;-64
2024/04/14 14:07:12;;;;;;;5.10;1.33;;;;;;;;;;5412328;26;20148;-65
2024/04/14 14:09:37;;;;;;;5.10;1.63;;;;;;;;;;5418386;26;20003;-66
2024/04/14 14:12:03;;;;;;;5.88;1.73;;;;;;;;;;5422627;26;19999;-65
2024/04/14 14:14:29;;;;;;;6.45;1.48;;;;;;;;;;5424098;26;20014;-63
2024/04/14 14:16:54;;;;;;;8.80;2.00;;;;;;;;;;5446541;26;20006;-63
2024/04/14 14:19:21;;;;;;;7.47;1.58;;;;;;;;;;5415119;26;20846;-66
2024/04/14 14:21:46;;;;;;;;;;;;;;;;;;5418926;26;20007;-63
2024/04/14 14:24:12;;;;;;;5.03;1.40;;;;;;;;;;5429419;26;19935;-66
2024/04/14 14:26:38;;;;;;;5.30;1.60;;;;;;;;;;5412490;26;20007;-66
2024/04/14 14:29:03;;;;;;;;;;;;;;;;;;5447088;26;20165;-64
2024/04/14 14:31:29;;;;;;;5.00;1.60;;;;;;;;;;5419568;26;19932;-64
2024/04/14 14:36:38;;;;;;;5.78;1.48;;;;;;;;;;5411386;26;20027;-65
2024/04/14 14:39:04;;;;;;;8.25;1.42;;;;;;;;;;5435229;26;20015;-66